CheckWX is a tool to help pilots better visualize weather data.  It is not intended as a substitute for an official pre-flight weather briefing.

19:13:31 UTC

KAVK METAR
Alva Regional Airport
Alva, Oklahoma, USA
Current

19 mins ago

KAVK 201855Z AUTO 19021KT 10SM BKN080 BKN090 BKN120 20/13 A2972 RMK AO2
Observed
Nov-20 @ 18:55 UTC
Wind
  • 190° at 21 KTS
Visibility
10 SM
Flight Rules
VFR
Cloud Levels
  • Broken at 8,000' AGL
  • Broken at 9,000' AGL
  • Broken at 12,000' AGL
Temperature
20°C / 68°F
Dewpoint
13°C / 55°F
Humidity
64%
Altimeter
29.72" Hg
Pressure
1006.42 hPa
Previous

39 mins ago

KAVK 201835Z AUTO 20020KT 10SM SCT075 BKN120 19/13 A2973 RMK AO2
Observed
Nov-20 @ 18:35 UTC
Wind
  • 200° at 20 KTS
Visibility
10 SM
Flight Rules
VFR
Cloud Levels
  • Scattered at 7,500' AGL
  • Broken at 12,000' AGL
Temperature
19°C / 66°F
Dewpoint
13°C / 55°F
Humidity
68%
Altimeter
29.73" Hg
Pressure
1006.82 hPa
Previous

59 mins ago

KAVK 201815Z AUTO 19022KT 10SM SCT085 BKN120 19/13 A2974 RMK AO2
Observed
Nov-20 @ 18:15 UTC
Wind
  • 190° at 22 KTS
Visibility
10 SM
Flight Rules
VFR
Cloud Levels
  • Scattered at 8,500' AGL
  • Broken at 12,000' AGL
Temperature
19°C / 66°F
Dewpoint
13°C / 55°F
Humidity
68%
Altimeter
29.74" Hg
Pressure
1007.12 hPa